Time;durP1;ratioP1;P1;durP2;ratioP2;P2;SDS_P1;SDS_P2;PMS_P1;PMS_P2;Temp;Humidity;BMP_temperature;BMP_pressure;BME280_temperature;BME280_humidity;BME280_pressure;Samples;Min_cycle;Max_cycle;Signal;HPM_P1;HPM_P2
2022/05/16 09:33:17;;;;;;;0.30;0.10;;;;;;;23.91;100.00;99626.56;1791257;78;28930;-52
2022/05/16 09:36:09;;;;;;;0.30;0.30;;;;;;;23.35;100.00;99619.59;1765959;79;21049;-53
2022/05/16 09:38:36;;;;;;;0.20;0.10;;;;;;;22.41;100.00;99627.81;1766708;80;21827;-54
2022/05/16 09:41:17;;;;;;;0.20;0.10;;;;;;;21.49;100.00;99642.71;1766676;80;21298;-53
2022/05/16 09:43:58;;;;;;;1.65;0.10;;;;;;;20.76;100.00;99632.63;1777037;80;20906;-54
2022/05/16 09:46:40;;;;;;;0.37;0.20;;;;;;;20.12;100.00;99638.95;1770604;80;21356;-52
2022/05/16 09:49:24;;;;;;;1.12;0.10;;;;;;;19.58;100.00;99644.18;1766647;80;20958;-53
2022/05/16 09:51:57;;;;;;;0.30;0.10;;;;;;;19.20;100.00;99634.33;1770612;80;21368;-53
2022/05/16 09:54:30;;;;;;;0.40;0.10;;;;;;;18.77;100.00;99643.41;1767074;80;21492;-53
2022/05/16 09:57:12;;;;;;;2.05;0.20;;;;;;;18.39;100.00;99632.05;1767463;80;20938;-55
2022/05/16 09:59:50;;;;;;;3.60;0.10;;;;;;;18.17;100.00;99636.17;1748095;80;20886;-53
2022/05/16 10:02:25;;;;;;;2.62;0.10;;;;;;;18.08;100.00;99647.31;1746866;80;21484;-53
2022/05/16 10:05:01;;;;;;;2.30;0.10;;;;;;;18.04;100.00;99631.70;1737708;80;21088;-53
2022/05/16 10:07:46;;;;;;;0.82;0.10;;;;;;;18.01;100.00;99629.25;1744455;80;20911;-52
2022/05/16 10:10:16;;;;;;;2.52;0.00;;;;;;;17.96;100.00;99623.28;1746988;80;20953;-54
2022/05/16 10:12:43;;;;;;;0.85;0.10;;;;;;;17.91;100.00;99641.86;1741773;80;20949;-52
2022/05/16 10:15:11;;;;;;;1.85;0.10;;;;;;;17.87;100.00;99629.95;1723682;81;20974;-53
2022/05/16 10:17:37;;;;;;;0.40;0.05;;;;;;;17.85;100.00;99629.24;1742395;80;21852;-51
2022/05/16 10:20:09;;;;;;;0.82;0.00;;;;;;;17.78;100.00;99613.86;1715012;80;21120;-53
2022/05/16 10:22:35;;;;;;;0.35;0.00;;;;;;;17.72;100.00;99624.77;1718215;80;21510;-52
2022/05/16 10:25:08;;;;;;;1.30;0.00;;;;;;;17.63;100.00;99615.09;1748885;80;20989;-54
2022/05/16 10:27:36;;;;;;;0.30;0.00;;;;;;;17.59;100.00;99620.39;1743413;80;21100;-51
2022/05/16 10:30:08;;;;;;;1.27;0.10;;;;;;;17.53;100.00;99620.85;1715913;80;21470;-53
2022/05/16 10:35:30;;;;;;;1.07;0.10;;;;;;;17.42;100.00;99616.77;1694873;81;20969;-51
2022/05/16 10:38:00;;;;;;;0.60;0.10;;;;;;;17.35;100.00;99609.06;1706114;81;21551;-52
2022/05/16 10:40:36;;;;;;;0.70;0.00;;;;;;;17.28;100.00;99614.62;1709006;81;21045;-52
2022/05/16 10:43:25;;;;;;;0.35;0.05;;;;;;;17.25;100.00;99608.08;1711823;81;21030;-53
2022/05/16 10:45:57;;;;;;;0.25;0.00;;;;;;;17.21;100.00;99607.92;1710802;81;21049;-53
2022/05/16 10:48:50;;;;;;;0.55;0.00;;;;;;;17.16;100.00;99607.43;1706622;81;21567;-52
2022/05/16 10:51:27;;;;;;;0.10;0.10;;;;;;;17.13;100.00;99599.50;1704494;81;21113;-55
2022/05/16 10:54:03;;;;;;;1.02;0.10;;;;;;;17.16;100.00;99607.43;1708307;82;21098;-53
2022/05/16 10:56:56;;;;;;;4.67;0.20;;;;;;;17.18;100.00;99605.43;1714196;82;21105;-51
2022/05/16 10:59:36;;;;;;;0.37;0.10;;;;;;;17.19;100.00;99605.81;1716850;81;21070;-54
2022/05/16 11:02:47;;;;;;;0.70;0.10;;;;;;;17.21;100.00;99605.20;1713770;82;21073;-50
2022/05/16 11:05:42;;;;;;;2.70;0.20;;;;;;;17.21;100.00;99599.77;1705085;82;21042;-52
2022/05/16 11:08:36;;;;;;;3.02;0.10;;;;;;;17.22;100.00;99591.11;1708085;81;21009;-52
2022/05/16 11:11:36;;;;;;;0.30;0.10;;;;;;;17.23;100.00;99587.41;1703703;81;21111;-53
2022/05/16 11:14:17;;;;;;;0.17;0.00;;;;;;;17.27;100.00;99587.04;1712326;81;21713;-51
2022/05/16 11:16:44;;;;;;;2.52;0.10;;;;;;;17.32;100.00;99580.77;1709763;82;20958;-51
2022/05/16 11:19:43;;;;;;;0.65;0.10;;;;;;;17.37;100.00;99584.47;1707421;82;21120;-52
2022/05/16 11:22:21;;;;;;;3.60;0.08;;;;;;;17.50;100.00;99581.16;1704870;83;21432;-54
2022/05/16 11:25:11;;;;;;;1.90;0.10;;;;;;;17.70;100.00;99591.34;1712420;81;21909;-53
2022/05/16 11:27:58;;;;;;;0.33;0.10;;;;;;;17.88;100.00;99574.02;1708400;81;21016;-51
2022/05/16 11:30:52;;;;;;;1.95;0.10;;;;;;;18.02;100.00;99582.45;1698968;82;21452;-53
2022/05/16 11:33:44;;;;;;;0.30;0.10;;;;;;;18.03;100.00;99580.11;1683254;82;21059;-54
2022/05/16 11:36:59;;;;;;;5.35;0.10;;;;;;;17.95;100.00;99593.48;1726054;80;21090;-51
2022/05/16 11:39:34;;;;;;;0.78;0.10;;;;;;;17.85;100.00;99594.72;1732748;80;22479;-50
2022/05/16 11:42:18;;;;;;;0.53;0.10;;;;;;;17.76;100.00;99593.59;1730167;80;21049;-50
2022/05/16 11:45:31;;;;;;;0.23;0.10;;;;;;;17.69;100.00;99585.52;1729195;81;21115;-53
2022/05/16 11:48:10;;;;;;;0.30;0.13;;;;;;;17.66;100.00;99586.28;1733762;81;21076;-53
2022/05/16 11:50:48;;;;;;;1.62;0.10;;;;;;;17.70;100.00;99583.67;1730176;81;21029;-50
2022/05/16 11:53:50;;;;;;;0.20;0.03;;;;;;;17.77;100.00;99579.49;1727145;81;21132;-51
2022/05/16 12:02:35;;;;;;;0.30;0.10;;;;;;;17.82;100.00;99579.98;1724335;81;21092;-52
2022/05/16 12:05:10;;;;;;;0.20;0.10;;;;;;;17.86;100.00;99565.63;1736232;81;21862;-54
2022/05/16 12:07:57;;;;;;;0.62;0.10;;;;;;;17.92;100.00;99571.44;1687776;82;21560;-51
2022/05/16 12:10:25;;;;;;;0.20;0.10;;;;;;;18.00;100.00;99566.23;1730360;81;21041;-54
2022/05/16 12:13:28;;;;;;;1.15;0.17;;;;;;;18.10;100.00;99561.77;1726171;80;21021;-54
2022/05/16 12:16:18;;;;;;;3.67;0.10;;;;;;;18.16;100.00;99554.94;1726540;80;21074;-54
2022/05/16 12:18:48;;;;;;;0.53;0.10;;;;;;;18.16;100.00;99560.39;1727131;81;21112;-53
2022/05/16 12:21:28;;;;;;;0.03;0.00;;;;;;;18.12;100.00;99557.03;1717309;81;21792;-53
2022/05/16 12:23:58;;;;;;;1.32;0.10;;;;;;;18.11;100.00;99565.36;1734710;81;21011;-52
2022/05/16 12:26:32;;;;;;;0.30;0.00;;;;;;;18.07;100.00;99555.20;1691868;82;20966;-51
2022/05/16 12:29:17;;;;;;;2.17;0.10;;;;;;;18.05;100.00;99554.95;1712621;81;21088;-51
2022/05/16 12:31:50;;;;;;;0.15;0.00;;;;;;;18.03;100.00;99550.98;1722965;81;21053;-51
2022/05/16 12:34:40;;;;;;;0.57;0.13;;;;;;;18.07;100.00;99552.97;1724647;81;21723;-55
2022/05/16 12:37:13;;;;;;;1.75;0.13;;;;;;;18.15;100.00;99540.45;1729921;80;21564;-57
2022/05/16 12:40:05;;;;;;;1.95;0.10;;;;;;;18.26;100.00;99535.98;1729929;80;20892;-52
2022/05/16 12:43:23;;;;;;;0.28;0.10;;;;;;;18.34;100.00;99536.20;1695651;82;21528;-55
2022/05/16 12:46:13;;;;;;;1.35;0.10;;;;;;;18.42;100.00;99535.93;1731871;80;20908;-54
2022/05/16 12:49:25;;;;;;;0.10;0.00;;;;;;;18.42;100.00;99541.88;1727136;80;21680;-52
2022/05/16 12:52:25;;;;;;;0.62;0.10;;;;;;;18.35;100.00;99540.66;1735378;80;21214;-53
2022/05/16 12:55:13;;;;;;;0.53;0.10;;;;;;;18.26;100.00;99536.84;1731523;80;21152;-51
2022/05/16 12:58:09;;;;;;;1.95;0.10;;;;;;;18.16;100.00;99537.23;1732784;80;21088;-51
2022/05/16 13:00:47;;;;;;;2.47;0.17;;;;;;;18.07;100.00;99533.41;1692951;83;21030;-55
2022/05/16 13:04:01;;;;;;;1.05;0.03;;;;;;;18.03;100.00;99539.25;1732052;80;21762;-52
2022/05/16 13:07:04;;;;;;;1.85;0.20;;;;;;;18.00;100.00;99528.11;1729250;80;21967;-52
2022/05/16 13:09:39;;;;;;;1.32;0.00;;;;;;;18.00;100.00;99521.30;1728343;80;20924;-55
2022/05/16 13:12:30;;;;;;;1.98;0.10;;;;;;;18.04;100.00;99525.48;1731646;80;20946;-52
2022/05/16 13:15:07;;;;;;;0.80;0.10;;;;;;;18.08;100.00;99523.38;1726897;81;20895;-51
2022/05/16 13:17:44;;;;;;;3.55;0.10;;;;;;;18.09;100.00;99523.27;1722545;81;21823;-52
2022/05/16 13:20:16;;;;;;;0.30;0.10;;;;;;;18.08;100.00;99524.25;1734257;80;20911;-52
2022/05/16 13:22:48;;;;;;;1.35;0.10;;;;;;;18.07;100.00;99517.07;1726090;80;20966;-53
2022/05/16 13:25:15;;;;;;;0.28;0.13;;;;;;;18.05;100.00;99521.77;1730901;81;21038;-53
2022/05/16 13:30:27;;;;;;;0.53;0.10;;;;;;;18.11;100.00;99513.61;1703106;82;24758;-55
2022/05/16 13:32:53;;;;;;;0.42;0.10;;;;;;;18.17;100.00;99514.95;1739455;81;21619;-55
2022/05/16 13:35:36;;;;;;;0.53;0.10;;;;;;;18.20;100.00;99522.88;1733733;81;21041;-51
2022/05/16 13:38:05;;;;;;;3.05;0.10;;;;;;;18.22;100.00;99514.05;1672880;85;21062;-54
2022/05/16 13:40:41;;;;;;;1.45;0.10;;;;;;;18.26;100.00;99511.45;1718923;81;20872;-54
2022/05/16 13:43:23;;;;;;;0.42;0.15;;;;;;;18.28;100.00;99509.48;1700072;81;21092;-54
2022/05/16 13:46:03;;;;;;;0.93;0.10;;;;;;;18.32;100.00;99512.30;1727517;81;21403;-52
2022/05/16 13:48:29;;;;;;;2.75;0.10;;;;;;;18.37;100.00;99525.06;1710352;81;20911;-54
2022/05/16 13:50:58;;;;;;;0.57;0.20;;;;;;;18.39;100.00;99513.51;1726012;81;22116;-52
2022/05/16 13:53:26;;;;;;;2.42;0.10;;;;;;;18.37;100.00;99501.37;1721799;81;21113;-52
2022/05/16 13:55:53;;;;;;;0.20;0.10;;;;;;;18.30;100.00;99517.87;1723732;81;21009;-53
2022/05/16 13:58:20;;;;;;;0.30;0.10;;;;;;;18.26;100.00;99523.72;1722241;81;21101;-53
2022/05/16 14:00:50;;;;;;;1.10;0.30;;;;;;;18.20;100.00;99520.16;1714405;81;21054;-55
2022/05/16 14:03:30;;;;;;;1.17;0.00;;;;;;;18.16;100.00;99520.89;1715485;81;21093;-54
2022/05/16 14:05:59;;;;;;;2.92;0.20;;;;;;;18.15;100.00;99520.02;1717059;81;21081;-52
2022/05/16 14:08:38;;;;;;;0.55;0.10;;;;;;;18.15;100.00;99519.16;1724843;81;21854;-53
2022/05/16 14:11:14;;;;;;;0.50;0.10;;;;;;;18.17;100.00;99525.34;1726492;81;21046;-55
2022/05/16 14:13:45;;;;;;;0.53;0.10;;;;;;;18.19;100.00;99521.14;1713113;81;21046;-53
2022/05/16 14:16:17;;;;;;;0.20;0.10;;;;;;;18.16;100.00;99522.25;1718696;81;20910;-54
2022/05/16 14:18:50;;;;;;;4.25;0.47;;;;;;;18.15;100.00;99526.83;1699577;81;21117;-51
2022/05/16 14:21:26;;;;;;;0.60;0.20;;;;;;;18.15;100.00;99523.23;1722368;81;21077;-53
2022/05/16 14:24:04;;;;;;;3.90;0.10;;;;;;;18.14;100.00;99527.82;1734051;81;21093;-53
2022/05/16 14:26:42;;;;;;;1.37;0.15;;;;;;;18.09;100.00;99526.48;1685655;83;21560;-52
2022/05/16 14:29:31;;;;;;;1.25;0.10;;;;;;;18.04;100.00;99523.25;1726763;82;21034;-52
2022/05/16 14:32:05;;;;;;;1.32;0.20;;;;;;;18.01;100.00;99524.39;1723702;82;21706;-52
2022/05/16 14:34:44;;;;;;;4.62;0.17;;;;;;;18.02;100.00;99515.23;1732288;81;21085;-52
2022/05/16 14:37:17;;;;;;;0.20;0.10;;;;;;;18.03;100.00;99509.30;1728657;81;21484;-54
2022/05/16 14:40:04;;;;;;;0.37;0.10;;;;;;;18.06;100.00;99516.70;1726703;82;21089;-53
2022/05/16 14:42:35;;;;;;;0.50;0.20;;;;;;;18.06;100.00;99512.61;1730481;81;22100;-54
2022/05/16 14:45:15;;;;;;;1.15;0.20;;;;;;;18.03;100.00;99508.77;1719548;81;21086;-51
2022/05/16 14:47:48;;;;;;;0.98;0.20;;;;;;;18.00;100.00;99508.17;1723319;81;21439;-53
2022/05/16 14:50:20;;;;;;;0.95;0.30;;;;;;;18.01;100.00;99512.63;1720321;81;21063;-51
2022/05/16 14:53:05;;;;;;;0.68;0.20;;;;;;;18.03;100.00;99512.02;1727669;81;21574;-54
2022/05/16 14:55:37;;;;;;;2.75;0.10;;;;;;;18.05;100.00;99512.73;1721384;81;21049;-54
2022/05/16 14:58:05;;;;;;;0.57;0.30;;;;;;;18.05;100.00;99515.45;1733420;81;21049;-53
2022/05/16 15:06:02;;;;;;;1.00;0.30;;;;;;;17.83;100.00;99514.14;1725750;81;21101;-53
2022/05/16 15:08:32;;;;;;;3.12;0.60;;;;;;;17.72;100.00;99517.23;1728198;81;21460;-52
2022/05/16 15:10:59;;;;;;;1.25;0.55;;;;;;;17.65;100.00;99511.05;1721942;81;21005;-52
2022/05/16 15:13:27;;;;;;;1.82;0.53;;;;;;;17.54;100.00;99515.96;1722925;81;21312;-51
2022/05/16 15:15:54;;;;;;;1.47;0.60;;;;;;;17.43;100.00;99510.54;1722644;81;21006;-55
2022/05/16 15:18:21;;;;;;;5.22;0.50;;;;;;;17.38;100.00;99514.97;1724335;81;21094;-53
2022/05/16 15:20:49;;;;;;;1.25;0.50;;;;;;;17.34;100.00;99516.72;1726078;81;21012;-52
2022/05/16 15:23:17;;;;;;;1.57;0.47;;;;;;;17.32;100.00;99516.83;1685719;83;21658;-51
2022/05/16 15:25:45;;;;;;;1.82;0.80;;;;;;;17.31;100.00;99515.09;1726913;81;21766;-55
2022/05/16 15:28:12;;;;;;;5.70;0.90;;;;;;;17.34;100.00;99525.75;1724275;81;20963;-52
2022/05/16 15:30:40;;;;;;;3.27;0.90;;;;;;;17.31;100.00;99524.62;1727518;81;21315;-53
2022/05/16 15:33:07;;;;;;;1.42;0.70;;;;;;;17.25;100.00;99520.16;1723643;81;20859;-54
2022/05/16 15:35:35;;;;;;;3.30;0.68;;;;;;;17.18;100.00;99530.64;1731584;81;20932;-54
2022/05/16 15:38:03;;;;;;;1.70;0.68;;;;;;;17.11;100.00;99521.23;1728080;81;21114;-53
2022/05/16 15:40:30;;;;;;;12.13;0.90;;;;;;;17.03;100.00;99516.41;1723849;81;20975;-53
2022/05/16 15:42:56;;;;;;;1.45;0.82;;;;;;;16.95;100.00;99523.42;1726493;81;21659;-53
2022/05/16 15:45:23;;;;;;;1.45;0.95;;;;;;;16.89;100.00;99525.27;1726011;81;20931;-52
2022/05/16 15:47:50;;;;;;;1.37;0.90;;;;;;;16.84;100.00;99531.57;1725776;81;20963;-52
2022/05/16 15:50:20;;;;;;;7.25;1.22;;;;;;;16.78;100.00;99529.30;1726247;81;21610;-53
2022/05/16 15:52:47;;;;;;;2.62;1.05;;;;;;;16.71;100.00;99528.05;1725827;81;20880;-51
2022/05/16 15:55:17;;;;;;;6.22;1.20;;;;;;;16.64;100.00;99531.25;1728521;81;20935;-52
2022/05/16 15:57:43;;;;;;;4.60;0.90;;;;;;;16.56;100.00;99536.37;1727310;81;20911;-51
2022/05/16 16:00:11;;;;;;;2.30;0.80;;;;;;;16.56;100.00;99536.37;1723269;81;20978;-53
2022/05/16 16:02:41;;;;;;;2.62;0.70;;;;;;;16.52;100.00;99536.20;1730170;81;21722;-53
2022/05/16 16:10:40;;;;;;;6.00;0.60;;;;;;;16.47;100.00;99540.27;1724819;81;21437;-56
2022/05/16 16:13:07;;;;;;;2.12;0.70;;;;;;;16.45;100.00;99543.59;1727400;81;20987;-53
2022/05/16 16:15:35;;;;;;;1.70;0.68;;;;;;;16.42;100.00;99544.67;1729261;81;22165;-53
2022/05/16 16:18:03;;;;;;;5.72;0.90;;;;;;;16.41;100.00;99544.33;1725536;81;20903;-55
2022/05/16 16:20:29;;;;;;;2.75;0.80;;;;;;;16.39;100.00;99544.92;1681799;83;21140;-54
2022/05/16 16:22:56;;;;;;;2.50;0.98;;;;;;;16.38;100.00;99546.39;1721386;81;21054;-51
2022/05/16 16:25:25;;;;;;;2.02;0.80;;;;;;;16.35;100.00;99546.13;1722075;81;21077;-55
2022/05/16 16:27:52;;;;;;;1.22;0.50;;;;;;;16.33;100.00;99548.11;1718586;81;21858;-54
2022/05/16 16:30:20;;;;;;;0.90;0.20;;;;;;;16.31;100.00;99543.28;1723177;81;21058;-54
2022/05/16 16:32:52;;;;;;;0.30;0.30;;;;;;;16.32;100.00;99540.08;1721108;81;21061;-53
2022/05/16 16:35:16;;;;;;;1.32;0.30;;;;;;;16.30;100.00;99544.25;1732988;80;20855;-53
2022/05/16 16:37:43;;;;;;;1.70;0.40;;;;;;;16.28;100.00;99548.93;1734127;80;20966;-55
2022/05/16 16:40:11;;;;;;;1.95;0.35;;;;;;;16.22;100.00;99541.25;1731112;80;20999;-52
2022/05/16 16:42:41;;;;;;;0.90;0.40;;;;;;;16.19;100.00;99543.69;1735156;81;21074;-52
2022/05/16 16:45:12;;;;;;;2.58;0.40;;;;;;;16.14;100.00;99549.10;1728013;80;21430;-52
2022/05/16 16:47:42;;;;;;;0.75;0.40;;;;;;;16.09;100.00;99553.98;1733485;80;21061;-53
2022/05/16 16:50:10;;;;;;;1.85;0.53;;;;;;;16.02;100.00;99555.42;1735948;80;21048;-52
2022/05/16 16:58:08;;;;;;;3.58;0.60;;;;;;;15.87;100.00;99563.72;1735424;80;21105;-54
2022/05/16 17:00:35;;;;;;;2.42;0.72;;;;;;;15.80;100.00;99568.35;1731180;81;21080;-52
2022/05/16 17:03:07;;;;;;;2.65;0.80;;;;;;;15.73;100.00;99576.08;1732281;80;21125;-52
2022/05/16 17:05:38;;;;;;;2.20;0.80;;;;;;;15.68;100.00;99577.37;1739452;80;21101;-53
2022/05/16 17:08:10;;;;;;;2.55;0.80;;;;;;;15.61;100.00;99582.86;1729680;80;20996;-52
2022/05/16 17:10:46;;;;;;;3.58;0.98;;;;;;;15.55;100.00;99585.53;1717078;81;21124;-52
2022/05/16 17:13:14;;;;;;;2.00;0.83;;;;;;;15.49;100.00;99587.27;1733787;80;21086;-52
2022/05/16 17:15:42;;;;;;;5.60;0.90;;;;;;;15.42;100.00;99592.27;1729290;80;21069;-51
2022/05/16 17:18:08;;;;;;;2.83;0.90;;;;;;;15.38;100.00;99591.25;1729736;80;21942;-51
2022/05/16 17:20:35;;;;;;;3.95;1.35;;;;;;;15.34;100.00;99596.00;1730532;80;21459;-52
2022/05/16 17:23:01;;;;;;;3.17;0.80;;;;;;;15.31;100.00;99599.44;1726800;81;21120;-51
2022/05/16 17:25:28;;;;;;;4.37;0.85;;;;;;;15.26;100.00;99603.81;1729437;80;21050;-51
2022/05/16 17:27:55;;;;;;;2.17;1.00;;;;;;;15.22;100.00;99605.02;1728873;80;21642;-51
2022/05/16 17:30:21;;;;;;;3.15;1.00;;;;;;;15.14;100.00;99601.45;1732353;80;21115;-51
2022/05/16 17:32:48;;;;;;;2.00;1.10;;;;;;;15.10;100.00;99608.56;1735181;80;21081;-51
2022/05/16 17:35:15;;;;;;;4.97;0.80;;;;;;;15.05;100.00;99613.45;1737297;81;21097;-51
2022/05/16 17:37:41;;;;;;;3.00;1.10;;;;;;;14.98;100.00;99608.91;1737338;80;21477;-51
2022/05/16 17:40:09;;;;;;;13.45;1.17;;;;;;;14.93;100.00;99616.50;1739994;80;21419;-51
2022/05/16 17:42:36;;;;;;;1.67;0.90;;;;;;;14.86;100.00;99618.38;1743760;80;21127;-52
2022/05/16 17:45:04;;;;;;;2.35;0.98;;;;;;;14.81;100.00;99623.22;1736222;80;21093;-51
2022/05/16 17:47:30;;;;;;;2.87;1.10;;;;;;;14.75;100.00;99624.52;1740818;80;20855;-51
2022/05/16 17:49:57;;;;;;;8.70;0.90;;;;;;;14.70;100.00;99623.97;1739682;80;21060;-52
2022/05/16 17:52:23;;;;;;;3.70;0.90;;;;;;;14.67;100.00;99628.23;1735616;80;21030;-53
2022/05/16 17:54:50;;;;;;;5.30;1.10;;;;;;;14.61;100.00;99635.41;1738652;81;21925;-52
2022/05/16 17:57:18;;;;;;;4.37;1.05;;;;;;;14.55;100.00;99634.44;1736970;80;21515;-51
2022/05/16 17:59:45;;;;;;;2.75;1.00;;;;;;;14.49;100.00;99647.05;1742688;80;20997;-51
2022/05/16 18:02:20;;;;;;;3.90;1.40;;;;;;;14.42;100.00;99641.66;1735907;80;21471;-50
2022/05/16 18:04:46;;;;;;;2.95;0.95;;;;;;;14.35;100.00;99654.70;1736203;80;21536;-52
2022/05/16 18:07:12;;;;;;;4.17;0.90;;;;;;;14.28;100.00;99651.53;1739766;80;21088;-52
2022/05/16 18:09:39;;;;;;;5.42;1.10;;;;;;;14.22;100.00;99648.33;1736993;80;21442;-51
2022/05/16 18:14:55;;;;;;;5.92;1.40;;;;;;;14.09;100.00;99660.44;1732978;80;21096;-53
2022/05/16 18:17:21;;;;;;;4.30;1.30;;;;;;;14.03;100.00;99660.84;1740091;80;21423;-50
2022/05/16 18:19:47;;;;;;;2.60;1.07;;;;;;;13.97;100.00;99662.56;1736707;80;21148;-52
2022/05/16 18:22:18;;;;;;;6.67;1.20;;;;;;;13.92;100.00;99664.22;1739122;80;21077;-52
2022/05/16 18:24:46;;;;;;;3.17;1.00;;;;;;;13.87;100.00;99670.39;1738306;80;21045;-50
2022/05/16 18:27:13;;;;;;;2.83;1.10;;;;;;;13.82;100.00;99671.66;1738556;80;21042;-51
2022/05/16 18:29:39;;;;;;;2.87;0.95;;;;;;;13.77;100.00;99679.20;1736861;80;21134;-50
2022/05/16 18:32:07;;;;;;;2.90;0.90;;;;;;;13.68;100.00;99677.94;1738893;80;21611;-52
2022/05/16 18:34:33;;;;;;;6.50;1.30;;;;;;;13.59;100.00;99690.20;1674691;82;21587;-51
2022/05/16 18:37:00;;;;;;;7.55;1.00;;;;;;;13.52;100.00;99690.19;1737860;80;20911;-51
2022/05/16 18:39:27;;;;;;;1.85;1.00;;;;;;;13.44;100.00;99688.92;1735117;80;20883;-52
2022/05/16 18:52:55;;;;;;;;;;;;;;;12.99;100.00;99703.31;1738228;80;20962;-51
2022/05/16 18:55:22;;;;;;;5.53;0.95;;;;;;;12.89;100.00;99697.09;1734875;80;20103;-51
2022/05/16 18:57:49;;;;;;;4.17;0.88;;;;;;;12.80;100.00;99700.80;1733534;81;21270;-52
2022/05/16 19:00:16;;;;;;;4.47;0.90;;;;;;;12.70;100.00;99703.16;1698780;82;20903;-51
2022/05/16 19:02:44;;;;;;;3.10;0.80;;;;;;;12.63;100.00;99701.78;1737815;81;21278;-52
2022/05/16 19:05:12;;;;;;;6.95;0.85;;;;;;;12.57;100.00;99710.72;1738485;80;21540;-52
2022/05/16 19:07:39;;;;;;;4.37;1.17;;;;;;;12.49;100.00;99716.55;1740174;80;20989;-51
2022/05/16 19:10:08;;;;;;;5.95;1.30;;;;;;;12.43;100.00;99716.88;1735570;80;21066;-51
2022/05/16 19:12:35;;;;;;;5.17;1.10;;;;;;;12.35;100.00;99718.66;1738159;80;20946;-52
2022/05/16 19:15:03;;;;;;;7.42;1.00;;;;;;;12.30;100.00;99709.09;1731967;81;20910;-51
2022/05/16 19:17:32;;;;;;;4.53;0.90;;;;;;;12.22;100.00;99710.87;1739588;80;20892;-51
2022/05/16 19:19:59;;;;;;;7.67;1.00;;;;;;;12.15;100.00;99711.30;1735784;80;20962;-51
2022/05/16 19:22:26;;;;;;;3.62;0.90;;;;;;;12.06;100.00;99709.98;1736508;81;21218;-51
2022/05/16 19:24:52;;;;;;;2.08;0.90;;;;;;;12.00;100.00;99712.98;1736119;80;21455;-50
2022/05/16 19:27:19;;;;;;;2.50;1.00;;;;;;;11.93;100.00;99715.62;1736357;80;21092;-52
2022/05/16 19:32:26;;;;;;;5.22;0.72;;;;;;;11.78;100.00;99711.07;1686329;80;21120;-51
2022/05/16 19:34:54;;;;;;;3.62;0.90;;;;;;;11.67;100.00;99708.91;1730286;81;21932;-51
2022/05/16 19:37:21;;;;;;;5.37;0.80;;;;;;;11.59;100.00;99703.92;1698292;81;21361;-50
2022/05/16 19:39:48;;;;;;;3.55;0.90;;;;;;;11.54;100.00;99703.31;1722023;81;21535;-52
2022/05/16 19:42:19;;;;;;;5.05;0.95;;;;;;;11.43;100.00;99706.16;1724850;81;21155;-52
2022/05/16 19:44:47;;;;;;;2.20;0.80;;;;;;;11.34;100.00;99705.70;1722457;81;20966;-51
2022/05/16 19:47:18;;;;;;;3.55;0.90;;;;;;;11.25;100.00;99704.82;1727270;81;22490;-51
2022/05/16 19:49:43;;;;;;;4.55;1.17;;;;;;;11.14;100.00;99711.73;1728286;81;21120;-51
2022/05/16 19:52:11;;;;;;;2.80;1.10;;;;;;;11.02;100.00;99705.14;1725869;81;21034;-51
2022/05/16 19:54:38;;;;;;;2.67;1.23;;;;;;;10.92;100.00;99707.89;1723122;81;21474;-51
2022/05/16 19:57:05;;;;;;;4.43;1.37;;;;;;;10.82;100.00;99711.98;1725828;81;21390;-51
2022/05/16 19:59:32;;;;;;;7.10;1.33;;;;;;;10.66;100.00;99709.66;1678753;83;21811;-51
2022/05/16 20:01:59;;;;;;;6.27;1.73;;;;;;;10.53;100.00;99712.09;1724384;81;21339;-51
2022/05/16 20:04:27;;;;;;;4.40;1.60;;;;;;;10.43;100.00;99713.01;1722878;81;21070;-51
2022/05/16 20:06:54;;;;;;;3.97;1.10;;;;;;;10.32;100.00;99711.77;1723774;81;21481;-51
2022/05/16 20:09:22;;;;;;;1.70;0.97;;;;;;;10.23;100.00;99707.22;1723482;81;20970;-51
2022/05/16 20:11:50;;;;;;;2.67;1.40;;;;;;;10.17;100.00;99708.87;1723435;81;21093;-50
2022/05/16 20:14:17;;;;;;;4.83;1.40;;;;;;;10.12;100.00;99708.16;1724359;81;21022;-52
2022/05/16 20:16:43;;;;;;;5.47;1.53;;;;;;;10.05;100.00;99710.74;1722323;81;21847;-52
2022/05/16 20:19:12;;;;;;;3.57;1.40;;;;;;;9.96;100.00;99717.02;1725690;81;21038;-50
2022/05/16 20:21:38;;;;;;;3.43;1.70;;;;;;;9.85;100.00;99720.22;1717548;81;21144;-50
2022/05/16 20:26:51;;;;;;;3.17;1.30;;;;;;;9.68;100.00;99716.08;1723287;81;21314;-50
2022/05/16 20:29:18;;;;;;;8.83;2.00;;;;;;;9.57;100.00;99715.68;1728086;81;21501;-50
2022/05/16 20:31:44;;;;;;;8.30;1.83;;;;;;;9.47;100.00;99710.72;1720873;81;21062;-51
2022/05/16 20:34:11;;;;;;;4.70;1.53;;;;;;;9.40;100.00;99702.53;1719670;81;21061;-50
2022/05/16 20:36:37;;;;;;;7.33;1.60;;;;;;;9.33;100.00;99709.59;1730450;80;21537;-51
2022/05/16 20:39:04;;;;;;;8.43;1.60;;;;;;;9.23;100.00;99709.11;1736319;80;21028;-50
2022/05/16 20:41:31;;;;;;;6.30;2.00;;;;;;;9.16;100.00;99712.13;1739128;80;21539;-50
2022/05/16 20:43:58;;;;;;;4.10;1.40;;;;;;;9.07;100.00;99707.56;1740541;80;21101;-50
2022/05/16 20:46:24;;;;;;;3.93;1.43;;;;;;;9.00;100.00;99709.23;1737648;80;21037;-50
2022/05/16 20:48:51;;;;;;;2.63;1.53;;;;;;;8.91;100.00;99710.49;1742263;80;21507;-50
2022/05/16 20:51:18;;;;;;;10.90;2.50;;;;;;;8.82;100.00;99708.19;1738133;80;21680;-51
2022/05/16 20:53:46;;;;;;;7.23;2.73;;;;;;;8.74;100.00;99714.34;1737324;80;21089;-50
2022/05/16 20:56:12;;;;;;;7.07;2.87;;;;;;;8.68;100.00;99715.45;1738990;81;21100;-50
2022/05/16 20:58:38;;;;;;;6.90;2.40;;;;;;;8.62;100.00;99714.84;1737526;80;21060;-49
2022/05/16 21:01:05;;;;;;;6.00;1.93;;;;;;;8.55;100.00;99716.91;1732077;80;21136;-49
2022/05/16 21:03:32;;;;;;;7.67;2.97;;;;;;;8.50;100.00;99711.33;1738073;80;21045;-49
2022/05/16 21:05:59;;;;;;;6.27;2.97;;;;;;;8.42;100.00;99714.79;1738186;80;21042;-51
2022/05/16 21:08:25;;;;;;;5.93;2.70;;;;;;;8.35;100.00;99721.72;1739109;80;21081;-50
2022/05/16 21:10:54;;;;;;;6.27;2.40;;;;;;;8.28;100.00;99724.67;1745081;80;21048;-49
2022/05/16 21:13:20;;;;;;;5.10;3.03;;;;;;;8.21;100.00;99724.05;1739612;80;21881;-50
2022/05/16 21:15:49;;;;;;;11.90;2.40;;;;;;;8.15;100.00;99718.05;1738570;80;21012;-51
2022/05/16 21:18:15;;;;;;;5.77;2.37;;;;;;;8.08;100.00;99721.41;1739356;80;21044;-50
2022/05/16 21:20:43;;;;;;;7.57;2.50;;;;;;;8.02;100.00;99720.78;1734531;80;21050;-50
2022/05/16 21:23:09;;;;;;;9.80;2.57;;;;;;;7.94;100.00;99721.95;1735200;80;21359;-49
2022/05/16 21:25:36;;;;;;;9.40;3.23;;;;;;;7.87;100.00;99724.92;1736787;80;21208;-50
2022/05/16 21:28:04;;;;;;;6.30;2.10;;;;;;;7.79;100.00;99722.54;1738131;80;21077;-50
2022/05/16 21:30:30;;;;;;;6.37;3.00;;;;;;;7.73;100.00;99721.91;1740162;80;21065;-49
2022/05/16 21:32:58;;;;;;;8.23;2.43;;;;;;;7.68;100.00;99723.86;1741785;80;20983;-49
2022/05/16 21:35:25;;;;;;;8.10;3.17;;;;;;;7.61;100.00;99723.22;1736340;80;20950;-51
2022/05/16 21:37:51;;;;;;;3.80;1.90;;;;;;;7.55;100.00;99719.43;1738458;80;21060;-51
2022/05/16 21:40:21;;;;;;;6.63;2.63;;;;;;;7.51;100.00;99725.81;1741440;80;21089;-51
2022/05/16 21:42:47;;;;;;;7.63;3.77;;;;;;;7.46;100.00;99715.28;1744666;80;21409;-51
2022/05/16 21:45:24;;;;;;;11.00;3.10;;;;;;;7.43;100.00;99731.91;1748352;80;20922;-49
2022/05/16 21:50:13;;;;;;;9.23;3.47;;;;;;;7.34;100.00;99727.76;1831240;75;26430;-48
2022/05/16 21:52:39;;;;;;;8.70;3.73;;;;;;;7.23;100.00;99725.91;1799622;77;21029;-48
2022/05/16 21:55:08;;;;;;;9.53;3.30;;;;;;;7.16;100.00;99720.37;1799309;78;21042;-50
2022/05/16 21:57:36;;;;;;;9.57;4.37;;;;;;;7.10;100.00;99725.94;1806942;76;20960;-48
2022/05/16 22:00:28;;;;;;;6.93;3.33;;;;;;;7.07;100.00;99724.70;1808482;76;20925;-48
2022/05/16 22:02:56;;;;;;;11.47;2.53;;;;;;;7.05;100.00;99726.58;1809909;76;20859;-49
2022/05/16 22:05:25;;;;;;;6.57;2.77;;;;;;;7.02;100.00;99728.89;1809863;76;20870;-49
2022/05/16 22:07:52;;;;;;;7.80;3.57;;;;;;;6.97;100.00;99723.29;1807814;76;21547;-49
2022/05/16 22:10:21;;;;;;;7.57;2.97;;;;;;;6.93;100.00;99718.49;1772229;78;20948;-51
2022/05/16 22:12:47;;;;;;;8.60;2.57;;;;;;;6.90;100.00;99721.72;1777608;78;21398;-49
2022/05/16 22:15:14;;;;;;;8.60;2.40;;;;;;;6.88;100.00;99712.89;1766578;78;21008;-50